createdAt,value
2018-06-03T00:00:52.221Z,15.50
2018-06-03T00:04:02.760Z,15.60
2018-06-03T00:07:13.011Z,15.60
2018-06-03T00:10:22.514Z,15.40
2018-06-03T00:13:32.008Z,15.50
2018-06-03T00:16:41.389Z,15.60
2018-06-03T00:19:51.272Z,15.40
2018-06-03T00:23:00.705Z,15.50
2018-06-03T00:26:13.321Z,15.50
2018-06-03T00:29:23.513Z,15.60
2018-06-03T00:32:33.261Z,15.70
2018-06-03T00:36:01.289Z,15.80
2018-06-03T00:39:11.183Z,15.70
2018-06-03T00:42:20.659Z,15.80
2018-06-03T00:45:32.205Z,16.00
2018-06-03T00:48:41.993Z,16.00
2018-06-03T00:51:51.556Z,16.00
2018-06-03T00:55:01.441Z,16.30
2018-06-03T00:58:11.843Z,16.30
2018-06-03T01:01:21.188Z,16.50
2018-06-03T01:04:30.509Z,16.10
2018-06-03T01:07:40.773Z,16.50
2018-06-03T01:10:50.952Z,16.50
2018-06-03T01:14:00.433Z,16.50
2018-06-03T01:17:10.107Z,16.50
2018-06-03T01:20:19.748Z,16.20
2018-06-03T01:23:29.887Z,16.00
2018-06-03T01:26:39.336Z,16.00
2018-06-03T01:29:49.582Z,16.10
2018-06-03T01:32:59.568Z,16.20
2018-06-03T01:36:09.042Z,15.90
2018-06-03T01:39:19.017Z,16.20
2018-06-03T01:42:29.276Z,16.10
2018-06-03T01:45:39.474Z,16.20
2018-06-03T01:48:49.114Z,16.00
2018-06-03T01:51:58.928Z,16.00
2018-06-03T01:55:09.216Z,16.10
2018-06-03T01:58:19.940Z,16.20
2018-06-03T02:01:29.403Z,16.20
2018-06-03T02:04:39.875Z,16.20
2018-06-03T02:07:50.224Z,16.40
2018-06-03T02:11:00.662Z,16.50
2018-06-03T02:14:11.956Z,16.70
2018-06-03T02:17:22.188Z,16.10
2018-06-03T02:20:31.541Z,16.20
2018-06-03T02:23:41.784Z,16.30
2018-06-03T02:26:51.153Z,16.20
2018-06-03T02:30:01.127Z,16.30
2018-06-03T02:33:10.633Z,16.30
2018-06-03T02:36:20.908Z,16.30
2018-06-03T02:39:31.195Z,16.20
2018-06-03T02:42:41.225Z,16.30
2018-06-03T02:45:51.209Z,16.20
2018-06-03T02:49:00.497Z,16.10
2018-06-03T02:52:09.915Z,16.10
2018-06-03T02:55:21.910Z,16.20
2018-06-03T02:58:31.646Z,16.20
2018-06-03T03:01:41.433Z,15.80
2018-06-03T03:04:51.988Z,16.10
2018-06-03T03:08:01.846Z,16.50
2018-06-03T03:11:11.797Z,16.10
2018-06-03T03:14:22.708Z,16.20
2018-06-03T03:17:32.149Z,16.20
2018-06-03T03:20:41.662Z,16.20
2018-06-03T03:23:51.232Z,15.90
2018-06-03T03:27:00.748Z,16.30
2018-06-03T03:30:10.501Z,16.30
2018-06-03T03:33:20.641Z,16.30
2018-06-03T03:36:29.996Z,16.20
2018-06-03T03:39:39.425Z,16.00
2018-06-03T03:42:48.908Z,16.30
2018-06-03T03:45:58.508Z,16.40
2018-06-03T03:49:08.077Z,16.60
2018-06-03T03:52:18.309Z,16.50
2018-06-03T03:55:28.173Z,16.60
2018-06-03T03:58:37.746Z,16.50
2018-06-03T04:01:47.408Z,16.60
2018-06-03T04:04:57.147Z,16.60
2018-06-03T04:08:07.434Z,16.60
2018-06-03T04:11:16.940Z,16.60
2018-06-03T04:14:27.163Z,16.70
2018-06-03T04:17:36.645Z,16.90
2018-06-03T04:20:46.868Z,16.90
2018-06-03T04:23:56.436Z,17.00
2018-06-03T04:27:06.387Z,17.00
2018-06-03T04:30:17.313Z,16.90
2018-06-03T04:33:27.693Z,16.90
2018-06-03T04:36:37.067Z,17.00
2018-06-03T04:39:47.012Z,17.00
2018-06-03T04:42:56.884Z,17.10
2018-06-03T04:46:06.401Z,16.90
2018-06-03T04:49:16.989Z,17.20
2018-06-03T04:55:37.787Z,17.20
2018-06-03T04:58:47.947Z,17.30
2018-06-03T05:01:57.364Z,17.30
2018-06-03T05:05:07.669Z,17.40
2018-06-03T05:08:17.513Z,17.40
2018-06-03T05:14:38.308Z,17.30
2018-06-03T05:17:47.697Z,17.20
2018-06-03T05:20:57.237Z,17.30
2018-06-03T05:24:06.637Z,17.30
2018-06-03T05:27:16.180Z,17.20
2018-06-03T05:30:25.600Z,17.60
2018-06-03T05:33:35.213Z,17.70
2018-06-03T05:36:45.573Z,17.60
2018-06-03T05:39:55.697Z,17.90
2018-06-03T05:43:08.983Z,17.90
2018-06-03T05:46:19.869Z,18.30
2018-06-03T05:49:31.045Z,18.30
2018-06-03T05:52:40.772Z,18.20
2018-06-03T05:55:50.671Z,18.40
2018-06-03T05:59:00.749Z,18.40
2018-06-03T06:02:10.075Z,18.50
2018-06-03T06:05:20.336Z,18.30
2018-06-03T06:08:31.740Z,18.60
2018-06-03T06:11:41.724Z,18.80
2018-06-03T06:14:52.042Z,18.70
2018-06-03T06:18:03.035Z,18.50
2018-06-03T06:21:13.164Z,18.90
2018-06-03T06:24:22.688Z,18.70
2018-06-03T06:27:33.101Z,19.00
2018-06-03T06:30:42.942Z,18.80
2018-06-03T06:33:52.397Z,19.00
2018-06-03T06:37:01.934Z,19.10
2018-06-03T06:40:11.445Z,19.30
2018-06-03T06:43:20.951Z,19.60
2018-06-03T06:46:32.440Z,19.70
2018-06-03T06:49:42.664Z,20.20
2018-06-03T06:52:52.894Z,20.60
2018-06-03T06:56:02.744Z,20.50
2018-06-03T06:59:12.946Z,20.50
2018-06-03T07:02:22.399Z,20.80
2018-06-03T07:05:32.085Z,20.70
2018-06-03T07:08:41.549Z,20.70
2018-06-03T07:11:51.123Z,20.30
2018-06-03T07:15:00.600Z,20.40
2018-06-03T07:18:10.519Z,20.50
2018-06-03T07:21:19.912Z,20.80
2018-06-03T07:24:29.784Z,20.80
2018-06-03T07:27:40.028Z,20.60
2018-06-03T07:30:49.823Z,20.80
2018-06-03T07:34:00.387Z,21.00
2018-06-03T07:37:10.136Z,20.90
2018-06-03T07:40:19.566Z,20.60
2018-06-03T07:43:29.026Z,20.50
2018-06-03T07:46:39.208Z,20.40
2018-06-03T07:49:48.719Z,20.90
2018-06-03T07:52:58.030Z,21.20
2018-06-03T07:56:07.904Z,21.30
2018-06-03T07:59:18.561Z,21.50
2018-06-03T08:02:28.427Z,22.00
2018-06-03T08:05:38.573Z,21.70
2018-06-03T08:08:48.096Z,20.80
2018-06-03T08:11:57.571Z,21.60
2018-06-03T08:15:07.851Z,21.40
2018-06-03T08:18:17.149Z,21.10
2018-06-03T08:21:27.437Z,20.70
2018-06-03T08:24:38.105Z,21.30
2018-06-03T08:27:48.749Z,21.50
2018-06-03T08:30:58.306Z,21.10
2018-06-03T08:34:07.857Z,20.80
2018-06-03T08:37:18.044Z,20.60
2018-06-03T08:40:28.252Z,20.80
2018-06-03T08:43:38.174Z,21.20
2018-06-03T08:46:47.683Z,21.50
2018-06-03T08:49:57.237Z,21.40
2018-06-03T08:53:07.328Z,21.50
2018-06-03T08:56:16.775Z,21.90
2018-06-03T08:59:26.201Z,21.00
2018-06-03T09:02:35.737Z,21.70
2018-06-03T09:05:45.715Z,21.70
2018-06-03T09:08:55.593Z,21.80
2018-06-03T09:12:06.037Z,22.20
2018-06-03T09:15:15.992Z,21.90
2018-06-03T09:18:25.425Z,21.80
2018-06-03T09:21:38.446Z,21.80
2018-06-03T09:24:48.257Z,21.80
2018-06-03T09:27:57.655Z,21.50
2018-06-03T09:31:07.151Z,21.00
2018-06-03T09:34:18.360Z,20.90
2018-06-03T09:37:27.739Z,20.70
2018-06-03T09:40:37.965Z,20.50
2018-06-03T09:43:47.694Z,20.80
2018-06-03T09:46:57.164Z,21.10
2018-06-03T09:50:06.545Z,21.60
2018-06-03T09:53:16.341Z,22.00
2018-06-03T09:56:26.461Z,21.10
2018-06-03T09:59:36.726Z,21.50
2018-06-03T10:02:46.592Z,21.90
2018-06-03T10:05:55.935Z,22.40
2018-06-03T10:09:05.852Z,22.70
2018-06-03T10:12:15.241Z,22.90
2018-06-03T10:15:25.528Z,23.80
2018-06-03T10:18:34.908Z,24.80
2018-06-03T10:21:46.557Z,24.40
2018-06-03T10:24:56.617Z,24.40
2018-06-03T10:28:06.433Z,23.90
2018-06-03T10:31:15.721Z,23.80
2018-06-03T10:34:25.103Z,22.90
2018-06-03T10:37:34.747Z,23.10
2018-06-03T10:40:44.805Z,23.40
2018-06-03T10:43:54.295Z,23.40
2018-06-03T10:47:03.809Z,23.20
2018-06-03T10:50:13.856Z,23.20
2018-06-03T10:53:23.274Z,23.60
2018-06-03T10:56:33.652Z,23.80
2018-06-03T10:59:43.899Z,23.70
2018-06-03T11:02:53.264Z,24.50
2018-06-03T11:06:03.081Z,23.80
2018-06-03T11:09:13.361Z,24.10
2018-06-03T11:19:12.918Z,23.80
2018-06-03T11:31:55.777Z,25.10
2018-06-03T11:35:06.697Z,25.30
2018-06-03T11:38:17.524Z,25.20
2018-06-03T11:50:59.888Z,24.60
2018-06-03T12:00:31.997Z,24.90
2018-06-03T12:03:43.001Z,25.60
2018-06-03T12:13:15.034Z,27.20
2018-06-03T12:19:36.123Z,25.20
2018-06-03T12:38:40.592Z,27.10
2018-06-03T12:48:12.380Z,25.90
2018-06-03T12:51:23.326Z,26.40
2018-06-03T12:57:45.944Z,27.50
2018-06-03T13:07:18.686Z,26.50
2018-06-03T13:13:40.088Z,28.20
2018-06-03T13:20:01.166Z,28.90
2018-06-03T13:29:34.905Z,30.40
2018-06-03T13:32:45.755Z,29.80
2018-06-03T13:45:29.837Z,30.70
2018-06-03T13:48:40.468Z,29.20
2018-06-03T13:51:51.193Z,29.90
2018-06-03T13:55:02.032Z,31.10
2018-06-03T13:58:12.965Z,29.50
2018-06-03T14:01:23.743Z,28.60
2018-06-03T14:07:45.857Z,27.80
2018-06-03T14:20:29.107Z,28.50
2018-06-03T14:23:39.954Z,28.60
2018-06-03T14:26:51.802Z,28.80
2018-06-03T14:33:13.596Z,27.80
2018-06-03T14:36:24.510Z,28.30
2018-06-03T14:39:35.170Z,28.50
2018-06-03T14:42:46.000Z,30.30
2018-06-03T14:52:17.966Z,27.50
2018-06-03T14:58:39.385Z,29.60
2018-06-03T15:01:50.068Z,29.70
2018-06-03T15:21:02.448Z,27.50
2018-06-03T15:24:13.775Z,29.60
2018-06-03T15:27:24.429Z,30.40
2018-06-03T15:30:35.859Z,30.70
2018-06-03T15:37:01.399Z,32.10
2018-06-03T15:40:12.197Z,32.70
2018-06-03T15:43:23.459Z,31.60
2018-06-03T15:46:34.291Z,32.20
2018-06-03T15:49:45.061Z,32.70
2018-06-03T15:52:55.986Z,33.90
2018-06-03T15:59:17.266Z,31.50
2018-06-03T16:02:28.970Z,31.10
2018-06-03T16:21:34.130Z,30.00
2018-06-03T16:24:45.143Z,30.50
2018-06-03T16:27:56.146Z,31.40
2018-06-03T16:34:18.165Z,33.20
2018-06-03T16:37:29.293Z,34.60
2018-06-03T16:40:40.012Z,34.70
2018-06-03T16:47:01.280Z,32.40
2018-06-03T16:50:11.921Z,33.40
2018-06-03T16:56:33.052Z,33.70
2018-06-03T17:02:54.761Z,32.20
2018-06-03T17:09:19.013Z,31.90
2018-06-03T17:15:40.650Z,31.50
2018-06-03T17:18:51.928Z,32.80
2018-06-03T17:22:02.973Z,31.80
2018-06-03T17:28:24.038Z,31.20
2018-06-03T17:31:34.953Z,31.00
2018-06-03T17:34:45.658Z,31.70
2018-06-03T17:41:08.034Z,32.00
2018-06-03T17:44:18.734Z,31.60
2018-06-03T17:47:29.417Z,32.40
2018-06-03T17:50:40.429Z,32.00
2018-06-03T17:53:51.196Z,31.10
2018-06-03T17:57:02.155Z,30.80
2018-06-03T18:00:13.425Z,31.90
2018-06-03T18:03:24.701Z,29.80
2018-06-03T18:06:36.479Z,30.20
2018-06-03T18:19:19.520Z,29.00
2018-06-03T18:22:30.565Z,28.70
2018-06-03T18:32:03.347Z,29.40
2018-06-03T18:38:24.765Z,28.30
2018-06-03T18:41:36.368Z,27.70
2018-06-03T18:47:57.961Z,26.20
2018-06-03T18:54:19.701Z,24.50
2018-06-03T18:57:30.412Z,23.90
2018-06-03T19:00:41.113Z,23.60
2018-06-03T19:03:52.095Z,22.90
2018-06-03T19:13:24.767Z,23.00
2018-06-03T19:16:35.889Z,22.90
2018-06-03T19:19:46.955Z,22.80
2018-06-03T19:22:58.015Z,22.40
2018-06-03T19:29:20.580Z,22.30
2018-06-03T19:35:51.282Z,21.50
2018-06-03T19:39:03.092Z,21.70
2018-06-03T20:14:06.720Z,19.80
2018-06-03T20:20:28.976Z,19.60
2018-06-03T20:23:39.813Z,19.30
2018-06-03T20:26:50.422Z,19.50
2018-06-03T20:33:13.316Z,19.20
2018-06-03T20:45:56.356Z,19.00
2018-06-03T21:05:02.459Z,18.50
2018-06-03T21:08:13.294Z,18.40
2018-06-03T21:11:24.457Z,18.60
2018-06-03T21:17:46.137Z,18.60
2018-06-03T21:24:08.760Z,18.30
2018-06-03T21:30:30.385Z,18.30
2018-06-03T21:33:41.520Z,18.00
2018-06-03T21:43:14.240Z,18.20
2018-06-03T21:46:25.123Z,18.20
2018-06-03T21:49:36.368Z,17.90
2018-06-03T21:52:47.284Z,17.70
2018-06-03T21:55:58.148Z,17.50
2018-06-03T21:59:09.033Z,17.70
2018-06-03T22:08:42.760Z,17.50
2018-06-03T22:11:53.743Z,17.30
2018-06-03T22:15:04.529Z,17.30
2018-06-03T22:18:16.620Z,17.50
2018-06-03T22:21:27.781Z,17.50
2018-06-03T22:24:38.895Z,17.20
2018-06-03T22:27:50.113Z,17.00
2018-06-03T22:31:01.315Z,17.40
2018-06-03T22:34:11.978Z,17.20
2018-06-03T22:40:34.589Z,17.20
2018-06-03T22:43:45.224Z,16.80
2018-06-03T22:46:56.262Z,16.80
2018-06-03T22:50:07.213Z,16.50
2018-06-03T22:53:18.212Z,16.50
2018-06-03T22:59:49.120Z,16.30
2018-06-03T23:03:05.237Z,16.40
2018-06-03T23:06:16.733Z,16.50
2018-06-03T23:15:48.944Z,16.60
2018-06-03T23:19:00.652Z,16.70
2018-06-03T23:22:11.582Z,16.70
2018-06-03T23:31:44.515Z,16.20
2018-06-03T23:38:05.772Z,16.10
2018-06-03T23:47:37.983Z,16.00
2018-06-03T23:50:48.820Z,16.20
2018-06-03T23:53:59.629Z,16.30
2018-06-03T23:57:12.424Z,16.20
